sensor_id;sensor_type;location;lat;lon;timestamp;pressure;altitude;pressure_sealevel;temperature;humidity
62833;BME280;48891;49.220;6.920;2024-02-15T00:01:44;99427.25;;;14.05;83.61
62833;BME280;48891;49.220;6.920;2024-02-15T00:04:10;99422.88;;;14.04;83.75
62833;BME280;48891;49.220;6.920;2024-02-15T00:06:35;99426.31;;;14.06;83.77
62833;BME280;48891;49.220;6.920;2024-02-15T00:09:00;99425.53;;;14.04;83.55
62833;BME280;48891;49.220;6.920;2024-02-15T00:11:25;99420.16;;;14.05;83.66
62833;BME280;48891;49.220;6.920;2024-02-15T00:13:51;99413.91;;;14.07;83.61
62833;BME280;48891;49.220;6.920;2024-02-15T00:16:16;99395.63;;;13.88;83.61
62833;BME280;48891;49.220;6.920;2024-02-15T00:18:41;99414.09;;;14.03;83.48
62833;BME280;48891;49.220;6.920;2024-02-15T00:21:07;99410.50;;;14.04;83.82
62833;BME280;48891;49.220;6.920;2024-02-15T00:23:32;99413.25;;;14.03;84.07
62833;BME280;48891;49.220;6.920;2024-02-15T00:25:58;99409.75;;;14.02;83.84
62833;BME280;48891;49.220;6.920;2024-02-15T00:28:23;99410.59;;;14.03;83.76
62833;BME280;48891;49.220;6.920;2024-02-15T00:30:48;99402.66;;;14.03;83.72
62833;BME280;48891;49.220;6.920;2024-02-15T00:33:14;99405.28;;;14.03;83.67
62833;BME280;48891;49.220;6.920;2024-02-15T00:35:39;99398.28;;;14.02;83.81
62833;BME280;48891;49.220;6.920;2024-02-15T00:38:04;99401.88;;;14.01;84.28
62833;BME280;48891;49.220;6.920;2024-02-15T00:40:29;99410.69;;;14.01;83.89
62833;BME280;48891;49.220;6.920;2024-02-15T00:42:55;99411.53;;;14.02;84.05
62833;BME280;48891;49.220;6.920;2024-02-15T00:45:20;99405.38;;;14.01;84.01
62833;BME280;48891;49.220;6.920;2024-02-15T00:47:45;99401.00;;;14.00;84.16
62833;BME280;48891;49.220;6.920;2024-02-15T00:50:10;99384.66;;;13.94;84.29
62833;BME280;48891;49.220;6.920;2024-02-15T00:52:36;99405.28;;;14.03;84.35
62833;BME280;48891;49.220;6.920;2024-02-15T00:55:01;99414.94;;;14.04;84.07
62833;BME280;48891;49.220;6.920;2024-02-15T00:57:26;99402.56;;;14.04;84.21
62833;BME280;48891;49.220;6.920;2024-02-15T00:59:51;99399.91;;;14.04;83.92
62833;BME280;48891;49.220;6.920;2024-02-15T01:02:17;99396.19;;;14.07;84.27
62833;BME280;48891;49.220;6.920;2024-02-15T01:04:42;99389.22;;;14.06;84.28
62833;BME280;48891;49.220;6.920;2024-02-15T01:07:07;99389.22;;;14.06;84.21
62833;BME280;48891;49.220;6.920;2024-02-15T01:09:32;99398.00;;;14.07;84.14
62833;BME280;48891;49.220;6.920;2024-02-15T01:11:58;99389.28;;;14.04;83.92
62833;BME280;48891;49.220;6.920;2024-02-15T01:14:23;99402.47;;;14.06;83.92
62833;BME280;48891;49.220;6.920;2024-02-15T01:16:48;99386.66;;;14.04;84.22
62833;BME280;48891;49.220;6.920;2024-02-15T01:19:13;99394.50;;;14.06;84.13
62833;BME280;48891;49.220;6.920;2024-02-15T01:21:39;99389.28;;;14.04;84.13
62833;BME280;48891;49.220;6.920;2024-02-15T01:24:04;99387.59;;;14.03;84.04
62833;BME280;48891;49.220;6.920;2024-02-15T01:26:29;99376.97;;;14.03;84.24
62833;BME280;48891;49.220;6.920;2024-02-15T01:28:55;99386.66;;;14.04;84.04
62833;BME280;48891;49.220;6.920;2024-02-15T01:31:20;99380.59;;;14.02;84.13
62833;BME280;48891;49.220;6.920;2024-02-15T01:33:45;99382.38;;;14.02;84.36
62833;BME280;48891;49.220;6.920;2024-02-15T01:36:18;99382.38;;;14.02;84.24
62833;BME280;48891;49.220;6.920;2024-02-15T01:38:44;99382.38;;;14.02;84.32
62833;BME280;48891;49.220;6.920;2024-02-15T01:41:09;99376.22;;;14.01;84.10
62833;BME280;48891;49.220;6.920;2024-02-15T01:43:38;99378.03;;;14.01;84.00
62833;BME280;48891;49.220;6.920;2024-02-15T01:46:08;99377.06;;;14.02;84.03
62833;BME280;48891;49.220;6.920;2024-02-15T01:48:35;99378.03;;;14.01;84.01
62833;BME280;48891;49.220;6.920;2024-02-15T01:51:02;99375.38;;;14.01;83.99
62833;BME280;48891;49.220;6.920;2024-02-15T01:53:27;99372.72;;;14.01;84.18
62833;BME280;48891;49.220;6.920;2024-02-15T01:55:53;99355.59;;;13.92;84.15
62833;BME280;48891;49.220;6.920;2024-02-15T01:58:19;99369.13;;;14.02;83.90
62833;BME280;48891;49.220;6.920;2024-02-15T02:00:44;99368.19;;;14.03;84.29
62833;BME280;48891;49.220;6.920;2024-02-15T02:03:10;99372.72;;;14.01;83.99
62833;BME280;48891;49.220;6.920;2024-02-15T02:05:36;99371.84;;;14.00;84.06
62833;BME280;48891;49.220;6.920;2024-02-15T02:08:01;99367.44;;;14.01;83.90
62833;BME280;48891;49.220;6.920;2024-02-15T02:10:27;99366.56;;;14.00;84.05
62833;BME280;48891;49.220;6.920;2024-02-15T02:12:52;99372.63;;;14.02;84.05
62833;BME280;48891;49.220;6.920;2024-02-15T02:15:17;99368.28;;;14.01;83.86
62833;BME280;48891;49.220;6.920;2024-02-15T02:17:43;99366.56;;;14.00;83.94
62833;BME280;48891;49.220;6.920;2024-02-15T02:20:12;99366.38;;;14.03;83.77
62833;BME280;48891;49.220;6.920;2024-02-15T02:22:38;99370.00;;;14.02;84.16
62833;BME280;48891;49.220;6.920;2024-02-15T02:25:07;99363.06;;;14.00;83.91
62833;BME280;48891;49.220;6.920;2024-02-15T02:27:33;99362.03;;;14.02;83.73
62833;BME280;48891;49.220;6.920;2024-02-15T02:29:58;99368.19;;;14.03;84.08
62833;BME280;48891;49.220;6.920;2024-02-15T02:32:24;99366.47;;;14.02;83.86
62833;BME280;48891;49.220;6.920;2024-02-15T02:34:49;99366.56;;;14.00;83.91
62833;BME280;48891;49.220;6.920;2024-02-15T02:37:14;99370.00;;;14.02;83.81
62833;BME280;48891;49.220;6.920;2024-02-15T02:39:39;99328.69;;;13.84;83.91
62833;BME280;48891;49.220;6.920;2024-02-15T02:42:05;99361.25;;;14.00;83.85
62833;BME280;48891;49.220;6.920;2024-02-15T02:44:30;99358.59;;;14.00;83.67
62833;BME280;48891;49.220;6.920;2024-02-15T02:46:55;99362.13;;;14.01;83.79
62833;BME280;48891;49.220;6.920;2024-02-15T02:49:20;99361.16;;;14.02;83.71
62833;BME280;48891;49.220;6.920;2024-02-15T02:51:46;99364.69;;;14.02;83.82
62833;BME280;48891;49.220;6.920;2024-02-15T02:54:11;99355.94;;;14.00;84.04
62833;BME280;48891;49.220;6.920;2024-02-15T02:56:36;99361.91;;;14.04;83.97
62833;BME280;48891;49.220;6.920;2024-02-15T02:59:01;99353.13;;;14.03;83.64
62833;BME280;48891;49.220;6.920;2024-02-15T03:01:27;99354.09;;;14.02;83.96
62833;BME280;48891;49.220;6.920;2024-02-15T03:03:53;99356.44;;;14.07;83.90
62833;BME280;48891;49.220;6.920;2024-02-15T03:06:18;99365.22;;;14.08;83.74
62833;BME280;48891;49.220;6.920;2024-02-15T03:08:43;99354.75;;;14.06;83.60
62833;BME280;48891;49.220;6.920;2024-02-15T03:11:08;99357.28;;;14.08;83.57
62833;BME280;48891;49.220;6.920;2024-02-15T03:13:34;99355.59;;;14.07;83.59
62833;BME280;48891;49.220;6.920;2024-02-15T03:15:59;99352.84;;;14.08;83.93
62833;BME280;48891;49.220;6.920;2024-02-15T03:18:24;99353.78;;;14.07;83.88
62833;BME280;48891;49.220;6.920;2024-02-15T03:20:49;99348.47;;;14.07;83.82
62833;BME280;48891;49.220;6.920;2024-02-15T03:23:15;99345.81;;;14.07;83.81
62833;BME280;48891;49.220;6.920;2024-02-15T03:25:40;99343.19;;;14.07;83.77
62833;BME280;48891;49.220;6.920;2024-02-15T03:28:05;99330.09;;;14.04;83.72
62833;BME280;48891;49.220;6.920;2024-02-15T03:30:32;99331.81;;;14.05;83.68
62833;BME280;48891;49.220;6.920;2024-02-15T03:32:58;99331.06;;;14.03;83.70
62833;BME280;48891;49.220;6.920;2024-02-15T03:35:27;99337.22;;;14.03;83.89
62833;BME280;48891;49.220;6.920;2024-02-15T03:37:52;99334.56;;;14.03;83.94
62833;BME280;48891;49.220;6.920;2024-02-15T03:40:19;99325.78;;;14.03;83.79
62833;BME280;48891;49.220;6.920;2024-02-15T03:42:44;99326.63;;;14.03;83.65
62833;BME280;48891;49.220;6.920;2024-02-15T03:45:10;99326.78;;;14.00;83.99
62833;BME280;48891;49.220;6.920;2024-02-15T03:47:35;99318.75;;;14.02;84.13
62833;BME280;48891;49.220;6.920;2024-02-15T03:50:00;99335.63;;;14.01;83.57
62833;BME280;48891;49.220;6.920;2024-02-15T03:52:26;99336.47;;;14.01;83.80
62833;BME280;48891;49.220;6.920;2024-02-15T03:54:51;99335.63;;;14.01;83.94
62833;BME280;48891;49.220;6.920;2024-02-15T03:57:16;99334.75;;;14.00;83.60
62833;BME280;48891;49.220;6.920;2024-02-15T03:59:41;99338.28;;;14.01;83.93
62833;BME280;48891;49.220;6.920;2024-02-15T04:02:06;99333.91;;;14.00;83.95
62833;BME280;48891;49.220;6.920;2024-02-15T04:04:32;99332.97;;;14.01;83.63
62833;BME280;48891;49.220;6.920;2024-02-15T04:06:57;99312.81;;;13.84;84.07
62833;BME280;48891;49.220;6.920;2024-02-15T04:09:22;99336.47;;;14.01;83.94
62833;BME280;48891;49.220;6.920;2024-02-15T04:11:48;99336.56;;;14.00;84.09
62833;BME280;48891;49.220;6.920;2024-02-15T04:14:13;99339.13;;;14.01;83.64
62833;BME280;48891;49.220;6.920;2024-02-15T04:16:38;99342.59;;;14.02;83.66
62833;BME280;48891;49.220;6.920;2024-02-15T04:19:03;99333.06;;;13.99;83.64
62833;BME280;48891;49.220;6.920;2024-02-15T04:21:28;99331.16;;;14.01;83.80
62833;BME280;48891;49.220;6.920;2024-02-15T04:23:54;99325.94;;;14.00;83.69
62833;BME280;48891;49.220;6.920;2024-02-15T04:26:19;99335.72;;;13.99;83.97
62833;BME280;48891;49.220;6.920;2024-02-15T04:28:45;99331.25;;;14.00;83.75
62833;BME280;48891;49.220;6.920;2024-02-15T04:31:11;99328.50;;;14.01;83.69
62833;BME280;48891;49.220;6.920;2024-02-15T04:33:36;99329.44;;;14.00;83.66
62833;BME280;48891;49.220;6.920;2024-02-15T04:36:01;99332.09;;;14.00;84.06
62833;BME280;48891;49.220;6.920;2024-02-15T04:38:26;99303.91;;;13.85;83.74
62833;BME280;48891;49.220;6.920;2024-02-15T04:40:52;99324.94;;;14.02;83.95
62833;BME280;48891;49.220;6.920;2024-02-15T04:43:17;99324.06;;;14.02;83.88
62833;BME280;48891;49.220;6.920;2024-02-15T04:45:42;99321.31;;;14.03;83.75
62833;BME280;48891;49.220;6.920;2024-02-15T04:48:07;99313.25;;;14.05;84.05
62833;BME280;48891;49.220;6.920;2024-02-15T04:50:33;99318.47;;;14.07;83.44
62833;BME280;48891;49.220;6.920;2024-02-15T04:52:58;99317.63;;;14.06;83.74
62833;BME280;48891;49.220;6.920;2024-02-15T04:55:23;99305.50;;;14.02;83.63
62833;BME280;48891;49.220;6.920;2024-02-15T04:57:49;99311.56;;;14.04;83.54
62833;BME280;48891;49.220;6.920;2024-02-15T05:00:15;99314.97;;;14.06;83.79
62833;BME280;48891;49.220;6.920;2024-02-15T05:02:41;99320.38;;;14.04;83.75
62833;BME280;48891;49.220;6.920;2024-02-15T05:05:07;99308.91;;;14.04;84.06
62833;BME280;48891;49.220;6.920;2024-02-15T05:07:32;99307.88;;;14.07;83.74
62833;BME280;48891;49.220;6.920;2024-02-15T05:09:57;99297.25;;;14.07;83.76
62833;BME280;48891;49.220;6.920;2024-02-15T05:12:23;99300.84;;;14.05;83.77
62833;BME280;48891;49.220;6.920;2024-02-15T05:14:49;99272.59;;;13.92;83.75
62833;BME280;48891;49.220;6.920;2024-02-15T05:17:14;99293.88;;;14.04;84.22
62833;BME280;48891;49.220;6.920;2024-02-15T05:19:39;99292.16;;;14.03;83.98
62833;BME280;48891;49.220;6.920;2024-02-15T05:22:05;99278.44;;;13.97;83.73
62833;BME280;48891;49.220;6.920;2024-02-15T05:24:30;99292.91;;;14.05;83.63
62833;BME280;48891;49.220;6.920;2024-02-15T05:26:55;99286.75;;;14.05;83.57
62833;BME280;48891;49.220;6.920;2024-02-15T05:29:20;99282.28;;;14.05;83.74
62833;BME280;48891;49.220;6.920;2024-02-15T05:31:46;99278.72;;;14.07;83.92
62833;BME280;48891;49.220;6.920;2024-02-15T05:34:11;99282.19;;;14.07;84.25
62833;BME280;48891;49.220;6.920;2024-02-15T05:36:36;99277.00;;;14.05;83.77
62833;BME280;48891;49.220;6.920;2024-02-15T05:39:02;99281.34;;;14.07;84.01
62833;BME280;48891;49.220;6.920;2024-02-15T05:41:27;99279.47;;;14.09;83.82
62833;BME280;48891;49.220;6.920;2024-02-15T05:43:53;99279.56;;;14.07;83.72
62833;BME280;48891;49.220;6.920;2024-02-15T05:46:18;99285.69;;;14.08;83.89
62833;BME280;48891;49.220;6.920;2024-02-15T05:48:44;99282.94;;;14.09;84.06
62833;BME280;48891;49.220;6.920;2024-02-15T05:51:09;99278.72;;;14.07;84.21
62833;BME280;48891;49.220;6.920;2024-02-15T05:53:35;99273.41;;;14.07;83.91
62833;BME280;48891;49.220;6.920;2024-02-15T05:56:00;99280.53;;;14.06;83.84
62833;BME280;48891;49.220;6.920;2024-02-15T05:58:25;99272.34;;;14.09;84.09
62833;BME280;48891;49.220;6.920;2024-02-15T06:00:51;99258.09;;;13.97;83.91
62833;BME280;48891;49.220;6.920;2024-02-15T06:03:16;99271.59;;;14.07;83.83
62833;BME280;48891;49.220;6.920;2024-02-15T06:05:42;99266.19;;;14.09;84.11
62833;BME280;48891;49.220;6.920;2024-02-15T06:08:08;99264.50;;;14.08;83.89
62833;BME280;48891;49.220;6.920;2024-02-15T06:10:33;99267.13;;;14.08;84.07
62833;BME280;48891;49.220;6.920;2024-02-15T06:12:58;99258.34;;;14.07;84.07
62833;BME280;48891;49.220;6.920;2024-02-15T06:15:23;99265.47;;;14.07;83.53
62833;BME280;48891;49.220;6.920;2024-02-15T06:17:49;99266.28;;;14.07;84.02
62833;BME280;48891;49.220;6.920;2024-02-15T06:20:15;99261.97;;;14.06;84.25
62833;BME280;48891;49.220;6.920;2024-02-15T06:22:41;99258.34;;;14.07;83.98
62833;BME280;48891;49.220;6.920;2024-02-15T06:25:06;99258.44;;;14.05;84.17
62833;BME280;48891;49.220;6.920;2024-02-15T06:27:31;99246.16;;;14.04;84.21
62833;BME280;48891;49.220;6.920;2024-02-15T06:29:57;99254.75;;;14.08;83.98
62833;BME280;48891;49.220;6.920;2024-02-15T06:32:22;99259.19;;;14.08;84.16
62833;BME280;48891;49.220;6.920;2024-02-15T06:34:47;99251.44;;;14.04;84.23
62833;BME280;48891;49.220;6.920;2024-02-15T06:37:36;99260.25;;;14.05;84.05
62833;BME280;48891;49.220;6.920;2024-02-15T06:40:01;99258.44;;;14.05;84.32
62833;BME280;48891;49.220;6.920;2024-02-15T06:42:26;99260.34;;;14.03;84.37
62833;BME280;48891;49.220;6.920;2024-02-15T06:44:52;99251.53;;;14.03;83.98
62833;BME280;48891;49.220;6.920;2024-02-15T06:47:17;99252.47;;;14.02;84.31
62833;BME280;48891;49.220;6.920;2024-02-15T06:49:42;99241.44;;;13.95;84.16
62833;BME280;48891;49.220;6.920;2024-02-15T06:52:09;99260.34;;;14.03;84.01
62833;BME280;48891;49.220;6.920;2024-02-15T06:54:35;99251.91;;;13.97;84.18
62833;BME280;48891;49.220;6.920;2024-02-15T06:57:01;99251.53;;;14.03;84.09
62833;BME280;48891;49.220;6.920;2024-02-15T06:59:26;99262.81;;;14.07;84.17
62833;BME280;48891;49.220;6.920;2024-02-15T07:01:51;99256.53;;;14.08;83.73
62833;BME280;48891;49.220;6.920;2024-02-15T07:04:17;99261.84;;;14.08;84.17
62833;BME280;48891;49.220;6.920;2024-02-15T07:06:42;99265.38;;;14.08;83.81
62833;BME280;48891;49.220;6.920;2024-02-15T07:09:08;99261.75;;;14.09;83.83
62833;BME280;48891;49.220;6.920;2024-02-15T07:11:33;99256.44;;;14.09;83.79
62833;BME280;48891;49.220;6.920;2024-02-15T07:13:58;99253.78;;;14.09;84.09
62833;BME280;48891;49.220;6.920;2024-02-15T07:16:24;99249.13;;;14.13;83.70
62833;BME280;48891;49.220;6.920;2024-02-15T07:18:49;99254.44;;;14.13;83.95
62833;BME280;48891;49.220;6.920;2024-02-15T07:21:14;99253.50;;;14.14;83.69
62833;BME280;48891;49.220;6.920;2024-02-15T07:23:40;99248.41;;;14.11;83.83
62833;BME280;48891;49.220;6.920;2024-02-15T07:26:05;99269.31;;;14.15;83.67
62833;BME280;48891;49.220;6.920;2024-02-15T07:28:30;99277.28;;;14.15;83.70
62833;BME280;48891;49.220;6.920;2024-02-15T07:30:55;99279.09;;;14.15;83.60
62833;BME280;48891;49.220;6.920;2024-02-15T07:33:21;99281.53;;;14.18;83.50
62833;BME280;48891;49.220;6.920;2024-02-15T07:35:47;99271.78;;;14.18;83.75
62833;BME280;48891;49.220;6.920;2024-02-15T07:38:12;99267.31;;;14.19;83.50
62833;BME280;48891;49.220;6.920;2024-02-15T07:40:37;99265.50;;;14.19;83.57
62833;BME280;48891;49.220;6.920;2024-02-15T07:43:03;99262.88;;;14.19;83.45
62833;BME280;48891;49.220;6.920;2024-02-15T07:45:28;99265.41;;;14.21;83.50
62833;BME280;48891;49.220;6.920;2024-02-15T07:47:53;99262.69;;;14.22;83.24
62833;BME280;48891;49.220;6.920;2024-02-15T07:50:19;99261.84;;;14.22;83.38
62833;BME280;48891;49.220;6.920;2024-02-15T07:52:44;99273.28;;;14.22;83.61
62833;BME280;48891;49.220;6.920;2024-02-15T07:55:09;99273.09;;;14.26;83.42
62833;BME280;48891;49.220;6.920;2024-02-15T07:57:34;99267.88;;;14.24;83.30
62833;BME280;48891;49.220;6.920;2024-02-15T08:00:00;99263.31;;;14.26;83.43
62833;BME280;48891;49.220;6.920;2024-02-15T08:02:25;99258.88;;;14.27;83.92
62833;BME280;48891;49.220;6.920;2024-02-15T08:04:50;99261.31;;;14.30;83.61
62833;BME280;48891;49.220;6.920;2024-02-15T08:07:15;99266.63;;;14.30;84.13
62833;BME280;48891;49.220;6.920;2024-02-15T08:09:41;99243.28;;;14.22;83.96
62833;BME280;48891;49.220;6.920;2024-02-15T08:12:07;99265.47;;;14.34;84.00
62833;BME280;48891;49.220;6.920;2024-02-15T08:14:32;99256.59;;;14.35;83.61
62833;BME280;48891;49.220;6.920;2024-02-15T08:16:57;99258.25;;;14.36;84.14
62833;BME280;48891;49.220;6.920;2024-02-15T08:19:22;99252.97;;;14.36;83.96
62833;BME280;48891;49.220;6.920;2024-02-15T08:21:48;99265.94;;;14.40;84.35
62833;BME280;48891;49.220;6.920;2024-02-15T08:24:13;99260.63;;;14.40;84.18
62833;BME280;48891;49.220;6.920;2024-02-15T08:26:39;99267.66;;;14.41;84.54
62833;BME280;48891;49.220;6.920;2024-02-15T08:29:05;99260.44;;;14.43;84.26
62833;BME280;48891;49.220;6.920;2024-02-15T08:31:30;99255.88;;;14.46;84.47
62833;BME280;48891;49.220;6.920;2024-02-15T08:33:55;99256.63;;;14.48;84.02
62833;BME280;48891;49.220;6.920;2024-02-15T08:36:21;99258.25;;;14.50;84.55
62833;BME280;48891;49.220;6.920;2024-02-15T08:38:46;99243.91;;;14.53;84.26
62833;BME280;48891;49.220;6.920;2024-02-15T08:41:12;99250.94;;;14.54;84.41
62833;BME280;48891;49.220;6.920;2024-02-15T08:43:37;99247.22;;;14.56;84.05
62833;BME280;48891;49.220;6.920;2024-02-15T08:46:02;99238.25;;;14.59;84.27
62833;BME280;48891;49.220;6.920;2024-02-15T08:48:28;99250.44;;;14.61;84.06
62833;BME280;48891;49.220;6.920;2024-02-15T08:50:53;99246.53;;;14.67;83.80
62833;BME280;48891;49.220;6.920;2024-02-15T08:53:18;99241.13;;;14.69;83.71
62833;BME280;48891;49.220;6.920;2024-02-15T08:55:43;99247.91;;;14.73;83.53
62833;BME280;48891;49.220;6.920;2024-02-15T08:58:08;99248.47;;;14.78;83.49
62833;BME280;48891;49.220;6.920;2024-02-15T09:00:34;99245.72;;;14.79;83.75
62833;BME280;48891;49.220;6.920;2024-02-15T09:02:59;99234.91;;;14.83;83.51
62833;BME280;48891;49.220;6.920;2024-02-15T09:05:24;99238.31;;;14.85;83.51
62833;BME280;48891;49.220;6.920;2024-02-15T09:07:49;99224.94;;;14.86;83.31
62833;BME280;48891;49.220;6.920;2024-02-15T09:10:15;99228.53;;;14.85;83.33
62833;BME280;48891;49.220;6.920;2024-02-15T09:12:42;99228.31;;;14.88;83.29
62833;BME280;48891;49.220;6.920;2024-02-15T09:15:09;99223.56;;;14.93;83.43
62833;BME280;48891;49.220;6.920;2024-02-15T09:17:34;99224.41;;;14.94;83.44
62833;BME280;48891;49.220;6.920;2024-02-15T09:20:00;99222.28;;;14.99;83.35
62833;BME280;48891;49.220;6.920;2024-02-15T09:22:25;99224.94;;;14.99;82.84
62833;BME280;48891;49.220;6.920;2024-02-15T09:24:50;99215.81;;;15.03;82.87
62833;BME280;48891;49.220;6.920;2024-02-15T09:27:17;99206.91;;;15.04;82.70
62833;BME280;48891;49.220;6.920;2024-02-15T09:29:42;99214.03;;;15.04;82.99
62833;BME280;48891;49.220;6.920;2024-02-15T09:32:07;99205.06;;;15.05;82.41
62833;BME280;48891;49.220;6.920;2024-02-15T09:34:32;99208.38;;;15.08;83.31
62833;BME280;48891;49.220;6.920;2024-02-15T09:36:58;99208.16;;;15.11;83.78
62833;BME280;48891;49.220;6.920;2024-02-15T09:39:23;99197.53;;;15.11;84.07
62833;BME280;48891;49.220;6.920;2024-02-15T09:41:49;99198.09;;;15.16;84.72
62833;BME280;48891;49.220;6.920;2024-02-15T09:44:14;99198.81;;;15.18;84.94
62833;BME280;48891;49.220;6.920;2024-02-15T09:46:42;99178.22;;;15.09;84.92
62833;BME280;48891;49.220;6.920;2024-02-15T09:49:08;99188.00;;;15.22;84.66
62833;BME280;48891;49.220;6.920;2024-02-15T09:51:34;99186.06;;;15.24;84.60
62833;BME280;48891;49.220;6.920;2024-02-15T09:54:00;99182.34;;;15.26;84.69
62833;BME280;48891;49.220;6.920;2024-02-15T09:56:26;99185.13;;;15.25;84.27
62833;BME280;48891;49.220;6.920;2024-02-15T09:58:53;99164.50;;;15.15;84.47
62833;BME280;48891;49.220;6.920;2024-02-15T10:01:21;99180.34;;;15.30;83.99
62833;BME280;48891;49.220;6.920;2024-02-15T10:03:49;99152.00;;;15.17;83.81
62833;BME280;48891;49.220;6.920;2024-02-15T10:06:14;99172.88;;;15.35;83.24
62833;BME280;48891;49.220;6.920;2024-02-15T10:08:40;99172.69;;;15.38;83.36
62833;BME280;48891;49.220;6.920;2024-02-15T10:11:08;99160.13;;;15.40;83.34
62833;BME280;48891;49.220;6.920;2024-02-15T10:13:34;99158.22;;;15.42;82.97
62833;BME280;48891;49.220;6.920;2024-02-15T10:16:14;99157.16;;;15.45;82.98
62833;BME280;48891;49.220;6.920;2024-02-15T10:18:39;99164.19;;;15.46;82.95
62833;BME280;48891;49.220;6.920;2024-02-15T10:21:04;99164.03;;;15.47;82.81
62833;BME280;48891;49.220;6.920;2024-02-15T10:23:30;99172.78;;;15.49;82.49
62833;BME280;48891;49.220;6.920;2024-02-15T10:25:55;99177.84;;;15.52;82.30
62833;BME280;48891;49.220;6.920;2024-02-15T10:28:21;99174.16;;;15.55;81.87
62833;BME280;48891;49.220;6.920;2024-02-15T10:30:46;99173.28;;;15.54;81.82
62833;BME280;48891;49.220;6.920;2024-02-15T10:35:46;99148.25;;;15.46;81.68
62833;BME280;48891;49.220;6.920;2024-02-15T10:38:12;99172.66;;;15.64;81.66
62833;BME280;48891;49.220;6.920;2024-02-15T10:40:37;99172.66;;;15.64;81.58
62833;BME280;48891;49.220;6.920;2024-02-15T10:43:03;99163.06;;;15.61;81.85
62833;BME280;48891;49.220;6.920;2024-02-15T10:45:31;99168.38;;;15.61;82.00
62833;BME280;48891;49.220;6.920;2024-02-15T10:47:56;99165.50;;;15.64;81.76
62833;BME280;48891;49.220;6.920;2024-02-15T10:50:22;99132.16;;;15.47;81.77
62833;BME280;48891;49.220;6.920;2024-02-15T10:52:57;99132.41;;;15.44;81.97
62833;BME280;48891;49.220;6.920;2024-02-15T10:58:01;99160.41;;;15.61;82.03
62833;BME280;48891;49.220;6.920;2024-02-15T11:00:28;99148.84;;;15.62;81.78
62833;BME280;48891;49.220;6.920;2024-02-15T11:03:02;99155.72;;;15.65;81.90
62833;BME280;48891;49.220;6.920;2024-02-15T11:05:32;99156.34;;;15.68;81.66
62833;BME280;48891;49.220;6.920;2024-02-15T11:07:58;99149.97;;;15.71;81.26
62833;BME280;48891;49.220;6.920;2024-02-15T11:10:25;99144.34;;;15.75;81.16
62833;BME280;48891;49.220;6.920;2024-02-15T11:12:51;99131.81;;;15.65;81.50
62833;BME280;48891;49.220;6.920;2024-02-15T11:18:00;99148.81;;;15.75;81.26
62833;BME280;48891;49.220;6.920;2024-02-15T11:22:57;99142.94;;;15.83;81.09
62833;BME280;48891;49.220;6.920;2024-02-15T11:25:34;99136.47;;;15.87;80.93
62833;BME280;48891;49.220;6.920;2024-02-15T11:30:47;99116.03;;;15.87;80.54
62833;BME280;48891;49.220;6.920;2024-02-15T11:33:34;99109.47;;;15.80;80.63
62833;BME280;48891;49.220;6.920;2024-02-15T11:36:09;99113.59;;;15.84;80.48
62833;BME280;48891;49.220;6.920;2024-02-15T11:38:35;99107.53;;;15.82;80.71
62833;BME280;48891;49.220;6.920;2024-02-15T11:41:05;99100.53;;;15.81;80.90
62833;BME280;48891;49.220;6.920;2024-02-15T11:46:05;99098.22;;;15.77;81.31
62833;BME280;48891;49.220;6.920;2024-02-15T11:48:35;99077.72;;;15.66;81.22
62833;BME280;48891;49.220;6.920;2024-02-15T11:51:01;99070.78;;;15.63;80.88
62833;BME280;48891;49.220;6.920;2024-02-15T11:53:26;99088.97;;;15.69;81.46
62833;BME280;48891;49.220;6.920;2024-02-15T11:55:59;99082.81;;;15.69;81.30
62833;BME280;48891;49.220;6.920;2024-02-15T11:58:25;99081.84;;;15.70;81.42
62833;BME280;48891;49.220;6.920;2024-02-15T12:00:50;99071.19;;;15.70;80.94
62833;BME280;48891;49.220;6.920;2024-02-15T12:03:17;99072.91;;;15.71;81.30
62833;BME280;48891;49.220;6.920;2024-02-15T12:05:42;99058.38;;;15.64;81.06
62833;BME280;48891;49.220;6.920;2024-02-15T12:08:10;99060.16;;;15.63;80.92
62833;BME280;48891;49.220;6.920;2024-02-15T12:10:35;99060.47;;;15.71;81.14
62833;BME280;48891;49.220;6.920;2024-02-15T12:13:01;99058.75;;;15.70;80.97
62833;BME280;48891;49.220;6.920;2024-02-15T12:15:26;99056.72;;;15.74;80.44
62833;BME280;48891;49.220;6.920;2024-02-15T12:17:51;99064.69;;;15.74;80.96
62833;BME280;48891;49.220;6.920;2024-02-15T12:20:16;99049.63;;;15.74;80.92
62833;BME280;48891;49.220;6.920;2024-02-15T12:22:47;99030.94;;;15.63;80.50
62833;BME280;48891;49.220;6.920;2024-02-15T12:25:16;99037.28;;;15.73;80.68
62833;BME280;48891;49.220;6.920;2024-02-15T12:27:42;99031.22;;;15.71;80.42
62833;BME280;48891;49.220;6.920;2024-02-15T12:30:12;99029.66;;;15.69;80.64
62833;BME280;48891;49.220;6.920;2024-02-15T12:32:38;99019.56;;;15.61;80.81
62833;BME280;48891;49.220;6.920;2024-02-15T12:35:11;99028.78;;;15.68;80.60
62833;BME280;48891;49.220;6.920;2024-02-15T12:37:36;99022.63;;;15.68;80.77
62833;BME280;48891;49.220;6.920;2024-02-15T12:40:16;99022.75;;;15.66;80.52
62833;BME280;48891;49.220;6.920;2024-02-15T12:42:43;98979.38;;;15.42;80.81
62833;BME280;48891;49.220;6.920;2024-02-15T12:45:15;99007.16;;;15.62;81.01
62833;BME280;48891;49.220;6.920;2024-02-15T12:47:40;99002.06;;;15.59;80.74
62833;BME280;48891;49.220;6.920;2024-02-15T12:50:19;98994.09;;;15.59;80.83
62833;BME280;48891;49.220;6.920;2024-02-15T12:52:46;99001.34;;;15.56;80.75
62833;BME280;48891;49.220;6.920;2024-02-15T12:55:19;98993.47;;;15.55;81.13
62833;BME280;48891;49.220;6.920;2024-02-15T12:57:48;98982.13;;;15.53;80.86
62833;BME280;48891;49.220;6.920;2024-02-15T13:00:13;98990.31;;;15.50;81.08
62833;BME280;48891;49.220;6.920;2024-02-15T13:02:39;98973.53;;;15.49;81.22
62833;BME280;48891;49.220;6.920;2024-02-15T13:05:05;98948.81;;;15.36;80.89
62833;BME280;48891;49.220;6.920;2024-02-15T13:07:31;98968.94;;;15.51;80.87
62833;BME280;48891;49.220;6.920;2024-02-15T13:09:56;98955.75;;;15.50;80.99